createdAt,value
2018-09-23T00:02:21.547Z,7.40
2018-09-23T00:04:50.304Z,7.10
2018-09-23T00:07:19.432Z,8.00
2018-09-23T00:09:48.629Z,6.83
2018-09-23T00:12:17.132Z,6.63
2018-09-23T00:14:45.578Z,6.70
2018-09-23T00:17:57.232Z,8.00
2018-09-23T00:23:57.209Z,5.90
2018-09-23T00:27:09.417Z,6.53
2018-09-23T00:30:28.397Z,6.10
2018-09-23T00:32:56.852Z,6.77
2018-09-23T00:38:56.144Z,7.67
2018-09-23T00:41:24.541Z,6.93
2018-09-23T00:44:00.145Z,7.40
2018-09-23T00:50:00.023Z,7.63
2018-09-23T00:55:59.737Z,7.50
2018-09-23T01:01:59.661Z,7.70
2018-09-23T01:04:28.111Z,6.80
2018-09-23T01:10:28.071Z,7.10
2018-09-23T01:19:32.456Z,5.80
2018-09-23T01:22:00.872Z,6.33
2018-09-23T01:24:29.300Z,5.50
2018-09-23T01:26:57.779Z,5.87
2018-09-23T01:29:26.498Z,5.70
2018-09-23T01:35:26.581Z,5.77
2018-09-23T01:41:26.467Z,5.17
2018-09-23T01:54:53.933Z,5.10
2018-09-23T02:00:56.676Z,5.30
2018-09-23T02:03:26.989Z,4.90
2018-09-23T02:09:26.160Z,4.63
2018-09-23T02:12:02.857Z,4.57
2018-09-23T02:14:31.280Z,5.13
2018-09-23T02:16:59.619Z,4.43
2018-09-23T02:19:28.005Z,5.33
2018-09-23T02:21:56.403Z,5.50
2018-09-23T02:24:24.814Z,5.93
2018-09-23T02:26:53.280Z,5.03
2018-09-23T02:29:21.692Z,5.87
2018-09-23T02:31:50.041Z,5.60
2018-09-23T02:34:18.417Z,5.37
2018-09-23T02:36:46.900Z,4.90
2018-09-23T02:39:15.904Z,5.17
2018-09-23T02:41:44.886Z,4.77
2018-09-23T02:44:13.257Z,4.97
2018-09-23T02:46:41.622Z,5.50
2018-09-23T02:49:10.082Z,4.47
2018-09-23T02:51:38.473Z,5.47
2018-09-23T02:54:07.028Z,4.27
2018-09-23T02:56:35.384Z,5.00
2018-09-23T02:59:03.762Z,4.67
2018-09-23T03:01:32.188Z,4.43
2018-09-23T03:04:00.540Z,4.87
2018-09-23T03:06:28.968Z,5.00
2018-09-23T03:08:57.382Z,5.43
2018-09-23T03:11:25.810Z,5.07
2018-09-23T03:13:54.283Z,4.83
2018-09-23T03:16:22.722Z,5.80
2018-09-23T03:18:51.133Z,5.27
2018-09-23T03:21:19.645Z,5.93
2018-09-23T03:23:48.918Z,4.90
2018-09-23T03:26:17.349Z,6.23
2018-09-23T03:28:46.288Z,6.63
2018-09-23T03:31:14.787Z,6.17
2018-09-23T03:33:43.353Z,6.65
2018-09-23T03:36:11.796Z,5.37
2018-09-23T03:38:42.239Z,5.97
2018-09-23T03:41:10.765Z,130.80
2018-09-23T03:43:39.152Z,244.50
2018-09-23T03:46:07.555Z,277.83
2018-09-23T03:48:36.100Z,379.43
2018-09-23T03:51:04.566Z,423.43
2018-09-23T03:53:33.141Z,337.77
2018-09-23T03:56:01.604Z,277.13
2018-09-23T03:58:30.038Z,249.80
2018-09-23T04:00:58.442Z,202.97
2018-09-23T04:03:26.927Z,183.50
2018-09-23T04:05:55.896Z,147.77
2018-09-23T04:08:24.373Z,129.63
2018-09-23T04:10:52.858Z,110.57
2018-09-23T04:13:21.304Z,90.93
2018-09-23T04:15:49.744Z,78.90
2018-09-23T04:18:18.147Z,66.80
2018-09-23T04:20:46.554Z,61.20
2018-09-23T04:23:14.944Z,52.50
2018-09-23T04:25:43.424Z,48.53
2018-09-23T04:28:11.915Z,39.97
2018-09-23T04:30:40.364Z,37.60
2018-09-23T04:33:08.772Z,34.27
2018-09-23T04:35:37.954Z,30.33
2018-09-23T04:38:06.378Z,25.80
2018-09-23T04:40:34.848Z,25.20
2018-09-23T04:43:03.717Z,21.50
2018-09-23T04:45:32.206Z,19.00
2018-09-23T04:48:05.400Z,17.53
2018-09-23T04:50:34.389Z,15.40
2018-09-23T04:53:03.533Z,13.80
2018-09-23T04:55:33.055Z,13.20
2018-09-23T04:58:02.174Z,11.43
2018-09-23T05:00:31.380Z,11.17
2018-09-23T05:03:00.500Z,10.57
2018-09-23T05:05:29.489Z,10.47
2018-09-23T05:07:57.929Z,9.97
2018-09-23T05:10:27.215Z,9.50
2018-09-23T05:12:55.637Z,9.33
2018-09-23T05:15:24.021Z,8.43
2018-09-23T05:17:52.529Z,8.47
2018-09-23T05:20:21.032Z,8.03
2018-09-23T05:22:49.406Z,8.27
2018-09-23T05:25:17.970Z,8.33
2018-09-23T05:27:46.514Z,7.87
2018-09-23T05:30:15.002Z,8.33
2018-09-23T05:32:43.467Z,8.57
2018-09-23T05:35:11.887Z,8.50
2018-09-23T05:37:40.369Z,8.30
2018-09-23T05:40:08.842Z,8.47
2018-09-23T05:42:37.252Z,8.37
2018-09-23T05:45:06.656Z,7.90
2018-09-23T05:47:35.122Z,8.40
2018-09-23T05:50:03.619Z,8.53
2018-09-23T05:52:32.035Z,8.30
2018-09-23T05:55:00.510Z,8.53
2018-09-23T05:57:29.584Z,9.57
2018-09-23T05:59:58.909Z,9.03
2018-09-23T06:02:27.428Z,8.67
2018-09-23T06:04:55.889Z,9.03
2018-09-23T06:07:24.301Z,8.03
2018-09-23T06:09:53.315Z,8.00
2018-09-23T06:12:21.754Z,8.63
2018-09-23T06:14:50.122Z,9.20
2018-09-23T06:17:18.566Z,9.40
2018-09-23T06:19:47.203Z,8.17
2018-09-23T06:22:15.712Z,8.33
2018-09-23T06:24:44.184Z,9.40
2018-09-23T06:27:12.595Z,8.83
2018-09-23T06:29:41.561Z,8.63
2018-09-23T06:32:10.481Z,9.57
2018-09-23T06:34:39.062Z,9.47
2018-09-23T06:37:07.466Z,9.63
2018-09-23T06:39:35.979Z,8.67
2018-09-23T06:42:04.396Z,9.70
2018-09-23T06:44:32.960Z,9.77
2018-09-23T06:47:01.495Z,10.13
2018-09-23T06:49:30.253Z,9.83
2018-09-23T06:51:58.745Z,9.27
2018-09-23T06:54:27.140Z,9.70
2018-09-23T06:56:55.543Z,9.70
2018-09-23T06:59:24.158Z,10.50
2018-09-23T07:01:52.922Z,9.57
2018-09-23T07:04:21.457Z,10.03
2018-09-23T07:06:49.885Z,9.67
2018-09-23T07:09:18.310Z,9.67
2018-09-23T07:11:47.498Z,9.03
2018-09-23T07:14:16.566Z,9.67
2018-09-23T07:19:19.678Z,9.30
2018-09-23T07:21:48.218Z,8.87
2018-09-23T07:24:17.077Z,8.87
2018-09-23T07:26:45.723Z,8.27
2018-09-23T07:29:14.132Z,7.40
2018-09-23T07:31:42.594Z,8.13
2018-09-23T07:34:11.664Z,8.10
2018-09-23T07:36:40.138Z,9.00
2018-09-23T07:39:09.607Z,8.33
2018-09-23T07:41:38.044Z,7.93
2018-09-23T07:44:06.872Z,8.73
2018-09-23T07:46:35.332Z,7.83
2018-09-23T07:49:03.883Z,8.33
2018-09-23T07:51:32.413Z,8.17
2018-09-23T07:54:00.878Z,7.27
2018-09-23T07:56:29.397Z,7.20
2018-09-23T07:58:57.877Z,7.67
2018-09-23T08:01:26.349Z,6.90
2018-09-23T08:03:54.935Z,6.90
2018-09-23T08:06:23.329Z,7.40
2018-09-23T08:08:51.814Z,6.43
2018-09-23T08:11:20.247Z,6.63
2018-09-23T08:13:49.890Z,6.43
2018-09-23T08:16:18.194Z,6.87
2018-09-23T08:18:47.358Z,7.33
2018-09-23T08:21:16.049Z,6.33
2018-09-23T08:23:44.739Z,7.07
2018-09-23T08:26:13.235Z,6.87
2018-09-23T08:28:41.653Z,7.03
2018-09-23T08:31:10.721Z,6.67
2018-09-23T08:33:39.164Z,6.50
2018-09-23T08:36:07.643Z,6.27
2018-09-23T08:38:36.141Z,6.20
2018-09-23T08:41:04.596Z,6.97
2018-09-23T08:43:33.297Z,6.17
2018-09-23T08:46:01.743Z,6.07
2018-09-23T08:48:31.258Z,6.40
2018-09-23T08:50:59.888Z,6.27
2018-09-23T08:53:28.596Z,5.97
2018-09-23T08:55:57.355Z,5.87
2018-09-23T08:58:25.941Z,6.20
2018-09-23T09:00:55.107Z,6.17
2018-09-23T09:03:23.590Z,6.70
2018-09-23T09:05:52.025Z,6.60
2018-09-23T09:08:20.839Z,6.93
2018-09-23T09:10:49.333Z,6.57
2018-09-23T09:13:18.092Z,7.33
2018-09-23T09:15:46.546Z,7.87
2018-09-23T09:18:15.850Z,8.10
2018-09-23T09:20:45.526Z,8.03
2018-09-23T09:23:13.962Z,7.87
2018-09-23T09:25:42.510Z,7.60
2018-09-23T09:28:11.357Z,8.53
2018-09-23T09:30:39.889Z,8.73
2018-09-23T09:33:08.597Z,9.10
2018-09-23T09:35:37.113Z,8.90
2018-09-23T09:38:05.533Z,8.93
2018-09-23T09:40:33.964Z,9.00
2018-09-23T09:43:02.396Z,9.23
2018-09-23T09:45:30.780Z,8.53
2018-09-23T09:47:59.278Z,9.23
2018-09-23T09:50:27.877Z,9.27
2018-09-23T09:52:56.824Z,9.17
2018-09-23T09:55:25.432Z,8.70
2018-09-23T09:57:53.753Z,8.67
2018-09-23T10:00:27.456Z,8.60
2018-09-23T10:02:55.832Z,8.67
2018-09-23T10:05:28.177Z,8.63
2018-09-23T10:07:56.616Z,7.83
2018-09-23T10:10:25.049Z,8.37
2018-09-23T10:12:53.514Z,8.90
2018-09-23T10:15:21.921Z,7.97
2018-09-23T10:17:50.324Z,8.03
2018-09-23T10:20:19.486Z,7.40
2018-09-23T10:22:48.738Z,7.73
2018-09-23T10:25:17.089Z,7.47
2018-09-23T10:27:45.537Z,6.97
2018-09-23T10:30:13.981Z,7.43
2018-09-23T10:32:42.908Z,7.40
2018-09-23T10:35:11.333Z,7.77
2018-09-23T10:37:39.809Z,7.13
2018-09-23T10:40:08.950Z,6.77
2018-09-23T10:42:37.397Z,7.00
2018-09-23T10:45:05.821Z,6.67
2018-09-23T10:47:34.475Z,6.37
2018-09-23T10:50:03.442Z,5.83
2018-09-23T10:52:31.941Z,6.03
2018-09-23T10:55:00.429Z,6.10
2018-09-23T10:57:28.981Z,6.13
2018-09-23T10:59:57.616Z,5.80
2018-09-23T11:02:26.178Z,5.83
2018-09-23T11:04:54.552Z,5.07
2018-09-23T11:07:23.064Z,5.20
2018-09-23T11:09:52.234Z,5.37
2018-09-23T11:12:21.322Z,5.37
2018-09-23T11:14:49.776Z,5.67
2018-09-23T11:17:18.584Z,5.10
2018-09-23T11:19:47.055Z,5.07
2018-09-23T11:22:15.489Z,5.30
2018-09-23T11:24:43.997Z,5.40
2018-09-23T11:27:12.393Z,5.13
2018-09-23T11:29:40.867Z,5.63
2018-09-23T11:32:09.324Z,5.40
2018-09-23T11:34:40.554Z,5.23
2018-09-23T11:37:11.466Z,5.63
2018-09-23T11:39:44.373Z,5.97
2018-09-23T11:42:12.977Z,5.43
2018-09-23T11:44:41.396Z,4.97
2018-09-23T11:47:09.918Z,6.23
2018-09-23T11:49:38.469Z,5.70
2018-09-23T11:52:07.049Z,5.73
2018-09-23T11:54:36.005Z,6.17
2018-09-23T11:57:04.567Z,6.60
2018-09-23T11:59:33.733Z,6.57
2018-09-23T12:02:03.696Z,6.83
2018-09-23T12:04:32.204Z,7.50
2018-09-23T12:07:00.688Z,8.03
2018-09-23T12:09:29.841Z,8.77
2018-09-23T12:11:58.278Z,8.13
2018-09-23T12:14:26.866Z,6.93
2018-09-23T12:16:55.709Z,6.77
2018-09-23T12:19:24.330Z,7.13
2018-09-23T12:21:53.152Z,6.00
2018-09-23T12:24:22.545Z,6.03
2018-09-23T12:26:53.941Z,5.40
2018-09-23T12:29:22.927Z,5.63
2018-09-23T12:31:51.972Z,4.17
2018-09-23T12:34:20.952Z,3.70
2018-09-23T12:36:51.193Z,3.20
2018-09-23T12:39:20.046Z,3.17
2018-09-23T12:41:48.620Z,3.60
2018-09-23T12:44:17.230Z,3.40
2018-09-23T12:46:46.806Z,3.27
2018-09-23T12:49:16.370Z,2.90
2018-09-23T12:51:45.730Z,3.20
2018-09-23T12:54:22.427Z,3.27
2018-09-23T12:59:28.373Z,2.40
2018-09-23T13:02:02.857Z,2.90
2018-09-23T13:04:32.735Z,2.97
2018-09-23T13:07:03.565Z,2.80
2018-09-23T13:09:32.426Z,4.00
2018-09-23T13:12:01.513Z,3.60
2018-09-23T13:14:30.653Z,4.20
2018-09-23T13:16:59.225Z,4.67
2018-09-23T13:19:28.493Z,4.97
2018-09-23T13:21:57.108Z,5.10
2018-09-23T13:24:29.919Z,6.10
2018-09-23T13:26:58.464Z,5.80
2018-09-23T13:29:27.034Z,7.00
2018-09-23T13:31:55.858Z,7.20
2018-09-23T13:34:24.478Z,6.77
2018-09-23T13:36:53.104Z,6.27
2018-09-23T13:39:22.125Z,6.60
2018-09-23T13:41:50.657Z,6.90
2018-09-23T13:44:19.130Z,7.27
2018-09-23T13:46:47.605Z,7.87
2018-09-23T13:49:16.087Z,9.10
2018-09-23T13:51:44.720Z,8.77
2018-09-23T13:54:13.504Z,9.03
2018-09-23T13:56:42.240Z,9.07
2018-09-23T13:59:10.861Z,8.30
2018-09-23T14:01:40.183Z,8.37
2018-09-23T14:04:08.647Z,8.20
2018-09-23T14:06:39.207Z,7.87
2018-09-23T14:09:07.807Z,8.13
2018-09-23T14:11:36.418Z,7.47
2018-09-23T14:14:06.469Z,7.60
2018-09-23T14:16:35.072Z,7.63
2018-09-23T14:19:03.868Z,7.80
2018-09-23T14:21:33.555Z,7.53
2018-09-23T14:24:03.193Z,6.83
2018-09-23T14:26:32.413Z,7.00
2018-09-23T14:29:01.064Z,7.57
2018-09-23T14:31:31.934Z,7.97
2018-09-23T14:34:01.879Z,6.73
2018-09-23T14:36:47.911Z,8.30
2018-09-23T14:39:52.088Z,7.30
2018-09-23T14:42:21.324Z,7.07
2018-09-23T14:44:51.387Z,6.60
2018-09-23T14:47:20.821Z,7.27
2018-09-23T14:49:49.285Z,6.33
2018-09-23T14:52:17.757Z,6.37
2018-09-23T14:54:47.790Z,6.30
2018-09-23T14:57:16.796Z,6.50
2018-09-23T14:59:55.441Z,6.53
2018-09-23T15:02:24.352Z,5.67
2018-09-23T15:04:55.105Z,5.47
2018-09-23T15:07:24.143Z,5.30
2018-09-23T15:09:53.127Z,5.43
2018-09-23T15:12:21.936Z,5.30
2018-09-23T15:14:51.601Z,4.93
2018-09-23T15:17:20.149Z,4.63
2018-09-23T15:19:49.310Z,4.70
2018-09-23T15:22:21.587Z,4.90
2018-09-23T15:24:53.164Z,5.30
2018-09-23T15:27:21.560Z,5.00
2018-09-23T15:29:55.325Z,5.10
2018-09-23T15:32:26.101Z,4.83
2018-09-23T15:34:55.260Z,4.80
2018-09-23T15:37:34.858Z,4.70
2018-09-23T15:40:08.044Z,4.83
2018-09-23T15:42:40.691Z,5.00
2018-09-23T15:45:09.276Z,4.63
2018-09-23T15:47:38.195Z,5.37
2018-09-23T15:50:07.671Z,5.23
2018-09-23T15:52:46.014Z,5.60
2018-09-23T15:55:14.596Z,4.80
2018-09-23T15:57:48.061Z,5.27
2018-09-23T16:00:16.845Z,5.53
2018-09-23T16:02:45.409Z,4.93
2018-09-23T16:05:14.035Z,5.13
2018-09-23T16:07:42.982Z,5.93
2018-09-23T16:10:12.490Z,5.30
2018-09-23T16:12:41.005Z,5.53
2018-09-23T16:15:09.689Z,5.50
2018-09-23T16:17:38.138Z,5.70
2018-09-23T16:20:06.685Z,6.00
2018-09-23T16:22:35.687Z,5.97
2018-09-23T16:25:04.244Z,5.97
2018-09-23T16:27:32.964Z,6.00
2018-09-23T16:30:01.350Z,6.33
2018-09-23T16:32:29.793Z,6.63
2018-09-23T16:34:58.163Z,6.73
2018-09-23T16:37:28.219Z,6.83
2018-09-23T16:39:58.429Z,7.07
2018-09-23T16:42:29.094Z,6.23
2018-09-23T16:44:58.249Z,7.63
2018-09-23T16:47:28.200Z,7.63
2018-09-23T16:49:58.106Z,7.00
2018-09-23T16:52:26.531Z,6.50
2018-09-23T16:54:55.975Z,8.10
2018-09-23T16:57:24.442Z,8.00
2018-09-23T16:59:53.117Z,7.83
2018-09-23T17:02:23.581Z,9.03
2018-09-23T17:04:52.081Z,8.60
2018-09-23T17:07:21.435Z,8.80
2018-09-23T17:09:49.758Z,8.67
2018-09-23T17:12:18.146Z,10.20
2018-09-23T17:14:46.879Z,9.57
2018-09-23T17:17:15.271Z,10.93
2018-09-23T17:19:43.733Z,9.73
2018-09-23T17:22:12.180Z,9.97
2018-09-23T17:24:40.595Z,10.63
2018-09-23T17:27:09.529Z,11.03
2018-09-23T17:29:38.056Z,11.60
2018-09-23T17:32:06.543Z,11.70
2018-09-23T17:34:34.939Z,11.37
2018-09-23T17:37:03.789Z,11.23
2018-09-23T17:39:32.206Z,10.97
2018-09-23T17:42:00.681Z,11.27
2018-09-23T17:44:29.112Z,12.53
2018-09-23T17:46:57.496Z,12.30
2018-09-23T17:49:25.971Z,11.03
2018-09-23T17:51:54.884Z,11.37
2018-09-23T17:54:23.279Z,11.70
2018-09-23T17:56:51.725Z,10.57
2018-09-23T17:59:20.117Z,11.67
2018-09-23T18:01:48.637Z,10.60
2018-09-23T18:04:18.337Z,10.97
2018-09-23T18:06:46.784Z,10.40
2018-09-23T18:09:15.257Z,10.23
2018-09-23T18:11:43.713Z,9.57
2018-09-23T18:14:12.561Z,9.40
2018-09-23T18:16:41.168Z,9.30
2018-09-23T18:19:09.668Z,9.33
2018-09-23T18:21:38.332Z,9.90
2018-09-23T18:24:12.698Z,9.77
2018-09-23T18:26:45.236Z,10.90
2018-09-23T18:29:13.783Z,14.10
2018-09-23T18:31:43.180Z,16.07
2018-09-23T18:34:13.003Z,14.63
2018-09-23T18:36:42.685Z,13.07
2018-09-23T18:39:15.329Z,14.30
2018-09-23T18:42:07.425Z,14.13
2018-09-23T18:44:43.367Z,14.23
2018-09-23T18:47:26.440Z,14.97
2018-09-23T18:50:01.823Z,13.10
2018-09-23T18:52:41.722Z,13.23
2018-09-23T18:55:32.097Z,11.30
2018-09-23T18:58:01.884Z,11.40
2018-09-23T19:00:30.381Z,9.73
2018-09-23T19:03:07.913Z,8.93
2018-09-23T19:05:43.279Z,8.43
2018-09-23T19:08:12.620Z,7.90
2018-09-23T19:10:46.286Z,7.80
2018-09-23T19:13:20.429Z,8.30
2018-09-23T19:16:56.807Z,9.30
2018-09-23T19:19:38.138Z,9.53
2018-09-23T19:22:15.609Z,8.97
2018-09-23T19:24:48.530Z,6.97
2018-09-23T19:27:30.487Z,6.80
2018-09-23T19:30:13.940Z,6.97
2018-09-23T19:32:42.783Z,6.10
2018-09-23T19:35:11.450Z,6.13
2018-09-23T19:37:40.882Z,6.67
2018-09-23T19:40:12.940Z,6.73
2018-09-23T19:42:43.573Z,6.03
2018-09-23T19:45:12.136Z,6.13
2018-09-23T19:47:41.015Z,6.67
2018-09-23T19:50:09.461Z,6.87
2018-09-23T19:52:37.988Z,6.60
2018-09-23T19:55:06.980Z,6.43
2018-09-23T19:57:35.627Z,7.30
2018-09-23T20:00:06.304Z,7.53
2018-09-23T20:02:35.255Z,7.20
2018-09-23T20:05:03.796Z,7.27
2018-09-23T20:07:33.414Z,7.80
2018-09-23T20:10:02.253Z,8.50
2018-09-23T20:12:30.676Z,8.27
2018-09-23T20:15:00.006Z,8.53
2018-09-23T20:17:28.771Z,8.87
2018-09-23T20:19:58.028Z,9.20
2018-09-23T20:22:26.380Z,9.73
2018-09-23T20:24:55.074Z,10.00
2018-09-23T20:27:23.571Z,10.47
2018-09-23T20:29:51.989Z,10.70
2018-09-23T20:32:20.966Z,11.20
2018-09-23T20:34:50.808Z,11.27
2018-09-23T20:37:21.686Z,12.10
2018-09-23T20:39:51.648Z,11.60
2018-09-23T20:42:24.996Z,12.43
2018-09-23T20:44:56.246Z,12.80
2018-09-23T20:47:28.632Z,13.00
2018-09-23T20:49:57.102Z,14.20
2018-09-23T20:52:25.564Z,13.50
2018-09-23T20:54:54.364Z,14.53
2018-09-23T20:57:22.804Z,14.53
2018-09-23T20:59:53.351Z,14.50
2018-09-23T21:02:21.867Z,14.93
2018-09-23T21:04:50.315Z,15.57
2018-09-23T21:07:22.262Z,17.47
2018-09-23T21:09:50.865Z,16.97
2018-09-23T21:12:19.394Z,17.67
2018-09-23T21:14:48.226Z,17.27
2018-09-23T21:17:21.218Z,16.47
2018-09-23T21:19:55.537Z,16.73
2018-09-23T21:22:37.956Z,15.50
2018-09-23T21:25:07.215Z,16.80
2018-09-23T21:27:35.843Z,17.80
2018-09-23T21:30:09.554Z,17.47
2018-09-23T21:32:56.546Z,16.83
2018-09-23T21:35:28.565Z,17.73
2018-09-23T21:37:58.063Z,17.17
2018-09-23T21:40:28.315Z,16.70
2018-09-23T21:42:57.289Z,17.97
2018-09-23T21:45:29.147Z,17.73
2018-09-23T21:47:59.202Z,18.40
2018-09-23T21:50:28.236Z,18.23
2018-09-23T21:52:57.164Z,17.33
2018-09-23T21:55:26.048Z,17.43
2018-09-23T21:57:54.598Z,17.60
2018-09-23T22:00:27.863Z,16.90
2018-09-23T22:02:56.544Z,16.67
2018-09-23T22:05:25.040Z,16.90
2018-09-23T22:07:53.587Z,16.00
2018-09-23T22:10:22.156Z,16.50
2018-09-23T22:12:51.229Z,15.97
2018-09-23T22:15:24.887Z,15.70
2018-09-23T22:17:53.861Z,14.70
2018-09-23T22:20:22.596Z,15.77
2018-09-23T22:22:51.079Z,14.53
2018-09-23T22:25:20.321Z,14.60
2018-09-23T22:27:49.464Z,14.73
2018-09-23T22:30:18.556Z,14.93
2018-09-23T22:32:46.899Z,14.20
2018-09-23T22:38:20.552Z,14.20
2018-09-23T22:46:40.151Z,13.77
2018-09-23T22:49:14.059Z,13.87
2018-09-23T22:51:42.692Z,13.43
2018-09-23T22:54:11.109Z,13.53
2018-09-23T22:56:39.542Z,13.80
2018-09-23T22:59:07.926Z,13.77
2018-09-23T23:01:36.317Z,13.37
2018-09-23T23:04:04.787Z,13.03
2018-09-23T23:06:33.660Z,13.57
2018-09-23T23:09:02.058Z,12.87
2018-09-23T23:11:30.535Z,13.00
2018-09-23T23:13:59.504Z,12.43
2018-09-23T23:16:27.925Z,13.77
2018-09-23T23:18:56.482Z,14.10
2018-09-23T23:21:24.981Z,14.67
2018-09-23T23:23:56.615Z,13.63
2018-09-23T23:26:35.097Z,14.03
2018-09-23T23:29:04.432Z,13.87
2018-09-23T23:31:33.689Z,13.23
2018-09-23T23:34:05.128Z,13.33
2018-09-23T23:36:34.439Z,13.17
2018-09-23T23:39:06.663Z,13.60
2018-09-23T23:41:35.827Z,12.73
2018-09-23T23:44:04.374Z,13.63
2018-09-23T23:46:32.751Z,13.20
2018-09-23T23:49:01.189Z,13.90
2018-09-23T23:51:29.560Z,13.60
2018-09-23T23:53:58.009Z,12.27
2018-09-23T23:56:26.500Z,13.27
2018-09-23T23:58:54.927Z,13.63
